Time;durP1;ratioP1;P1;durP2;ratioP2;P2;SDS_P1;SDS_P2;PMS_P1;PMS_P2;Temp;Humidity;BMP_temperature;BMP_pressure;BME280_temperature;BME280_humidity;BME280_pressure;Samples;Min_cycle;Max_cycle;Signal;HPM_P1;HPM_P2
2022/07/05 00:01:18;;;;;;;1.00;0.60;;;18.60;99.90;;;;;;5091510;28;20558;-46
2022/07/05 00:03:45;;;;;;;1.30;0.50;;;18.60;99.90;;;;;;5091818;28;20502;-45
2022/07/05 00:06:12;;;;;;;3.50;0.73;;;18.70;99.90;;;;;;5092125;28;20440;-47
2022/07/05 00:08:40;;;;;;;1.43;0.97;;;18.70;99.90;;;;;;5091818;28;20443;-46
2022/07/05 00:11:07;;;;;;;3.93;0.87;;;18.70;99.90;;;;;;5091398;28;20506;-45
2022/07/05 00:13:34;;;;;;;2.27;0.73;;;18.60;99.90;;;;;;5091761;28;20471;-47
2022/07/05 00:16:01;;;;;;;1.97;0.80;;;18.40;99.90;;;;;;5091599;28;20474;-47
2022/07/05 00:18:28;;;;;;;1.87;0.80;;;18.40;99.90;;;;;;5091581;28;20447;-46
2022/07/05 00:20:55;;;;;;;1.10;0.60;;;18.40;99.90;;;;;;5091260;28;20495;-46
2022/07/05 00:23:22;;;;;;;1.67;0.60;;;18.40;99.90;;;;;;5091365;28;20443;-47
2022/07/05 00:25:50;;;;;;;3.33;0.97;;;18.20;99.90;;;;;;5091262;28;20904;-47
2022/07/05 00:28:17;;;;;;;3.93;1.10;;;18.10;99.90;;;;;;5091565;28;20518;-45
2022/07/05 00:30:44;;;;;;;2.17;1.50;;;18.10;99.90;;;;;;5091088;28;20513;-48
2022/07/05 00:33:11;;;;;;;2.07;1.10;;;18.20;99.90;;;;;;5091335;28;20493;-46
2022/07/05 00:35:38;;;;;;;1.63;1.07;;;18.20;99.90;;;;;;5091184;28;20924;-45
2022/07/05 00:38:05;;;;;;;3.30;1.17;;;18.30;99.90;;;;;;5090955;28;20475;-47
2022/07/05 00:40:31;;;;;;;3.10;0.90;;;18.40;99.90;;;;;;5090436;28;20504;-45
2022/07/05 00:43:00;;;;;;;2.13;1.03;;;18.40;99.90;;;;;;5090986;28;21025;-50
2022/07/05 00:45:27;;;;;;;2.03;1.30;;;18.30;99.90;;;;;;5091152;28;20444;-47
2022/07/05 00:47:54;;;;;;;2.90;1.20;;;18.20;99.90;;;;;;5091044;28;20516;-43
2022/07/05 00:50:21;;;;;;;2.23;1.10;;;18.10;99.90;;;;;;5090709;28;20542;-45
2022/07/05 00:52:48;;;;;;;1.87;1.17;;;18.00;99.90;;;;;;5090854;28;20584;-45
2022/07/05 00:55:17;;;;;;;2.50;1.47;;;17.90;99.90;;;;;;5090693;28;20471;-45
2022/07/05 00:57:44;;;;;;;1.43;1.07;;;17.90;99.90;;;;;;5090854;28;20562;-50
2022/07/05 01:00:13;;;;;;;2.20;1.40;;;18.00;99.90;;;;;;5090349;28;20489;-45
2022/07/05 01:02:40;;;;;;;2.57;1.47;;;17.90;99.90;;;;;;5090310;28;20443;-47
2022/07/05 01:05:08;;;;;;;6.50;1.43;;;18.00;99.90;;;;;;5090706;28;20530;-45
2022/07/05 01:07:36;;;;;;;1.90;1.33;;;18.00;99.90;;;;;;5090451;28;20440;-46
2022/07/05 01:10:03;;;;;;;1.87;1.20;;;18.00;99.90;;;;;;5090177;28;20468;-47
2022/07/05 01:12:30;;;;;;;2.30;1.23;;;18.00;99.90;;;;;;5090207;28;20546;-48
2022/07/05 01:14:58;;;;;;;1.30;1.10;;;17.90;99.90;;;;;;5090347;28;20475;-48
2022/07/05 01:17:26;;;;;;;2.90;1.23;;;17.90;99.90;;;;;;5090563;28;20503;-48
2022/07/05 01:19:54;;;;;;;2.80;1.20;;;18.00;99.90;;;;;;5090430;28;20487;-44
2022/07/05 01:22:25;;;;;;;2.67;1.83;;;18.00;99.90;;;;;;5090625;28;20999;-48
2022/07/05 01:24:54;;;;;;;4.13;1.27;;;17.90;99.90;;;;;;5090514;28;20482;-45
2022/07/05 01:27:21;;;;;;;2.47;1.70;;;18.00;99.90;;;;;;5090335;28;20471;-45
2022/07/05 01:29:48;;;;;;;3.30;1.57;;;18.10;99.90;;;;;;5089825;28;20512;-47
2022/07/05 01:32:15;;;;;;;1.97;1.57;;;18.20;99.90;;;;;;5090457;28;20439;-46
2022/07/05 01:34:42;;;;;;;2.10;1.90;;;18.30;99.90;;;;;;5090273;28;20439;-48
2022/07/05 01:37:10;;;;;;;2.70;1.73;;;18.40;99.90;;;;;;5090193;28;20571;-47
2022/07/05 01:39:38;;;;;;;2.50;1.40;;;18.40;99.90;;;;;;5089602;28;20874;-47
2022/07/05 01:42:06;;;;;;;2.20;1.60;;;18.50;99.90;;;;;;5090097;28;20931;-46
2022/07/05 01:44:33;;;;;;;1.80;1.50;;;18.50;99.90;;;;;;5090061;28;20463;-45
2022/07/05 01:47:05;;;;;;;3.13;1.87;;;18.50;99.90;;;;;;5089910;28;20510;-45
2022/07/05 01:49:36;;;;;;;2.10;1.77;;;18.60;99.90;;;;;;5089710;28;20447;-46
2022/07/05 01:52:08;;;;;;;1.53;1.10;;;18.60;99.90;;;;;;5090087;28;20447;-49
2022/07/05 01:54:35;;;;;;;2.10;1.00;;;18.70;99.90;;;;;;5089923;28;20884;-45
2022/07/05 01:57:02;;;;;;;3.33;1.20;;;18.70;99.90;;;;;;5089887;28;20479;-45
2022/07/05 01:59:32;;;;;;;1.50;1.13;;;18.70;99.90;;;;;;5089427;28;20439;-46
2022/07/05 02:01:59;;;;;;;4.53;1.37;;;18.70;99.90;;;;;;5089861;28;20439;-46
2022/07/05 02:04:26;;;;;;;1.87;1.63;;;18.70;99.90;;;;;;5089948;28;20496;-47
2022/07/05 02:06:53;;;;;;;2.97;1.50;;;18.70;99.90;;;;;;5089737;28;20526;-45
2022/07/05 02:09:20;;;;;;;2.70;0.97;;;18.70;99.90;;;;;;5090016;28;20471;-47
2022/07/05 02:11:47;;;;;;;2.77;1.53;;;18.80;99.90;;;;;;5089248;28;20465;-47
2022/07/05 02:14:14;;;;;;;1.87;1.20;;;18.80;99.90;;;;;;5090758;28;20435;-47
2022/07/05 02:16:42;;;;;;;1.90;0.80;;;18.80;99.90;;;;;;5093723;28;20443;-45
2022/07/05 02:19:09;;;;;;;3.63;1.30;;;18.80;99.90;;;;;;5093568;28;21059;-45
2022/07/05 02:21:36;;;;;;;3.70;1.10;;;18.80;99.90;;;;;;5093703;28;20481;-45
2022/07/05 02:24:03;;;;;;;2.97;1.60;;;18.80;99.90;;;;;;5093886;28;20443;-47
2022/07/05 02:26:30;;;;;;;2.47;2.00;;;18.80;99.90;;;;;;5094114;28;20474;-46
2022/07/05 02:28:57;;;;;;;2.40;1.60;;;18.80;99.90;;;;;;5093437;28;20518;-50
2022/07/05 02:31:24;;;;;;;1.93;1.50;;;18.80;99.90;;;;;;5093545;28;20492;-45
2022/07/05 02:33:53;;;;;;;1.87;1.40;;;18.80;99.90;;;;;;5093344;28;20952;-47
2022/07/05 02:36:20;;;;;;;3.87;2.23;;;18.80;99.90;;;;;;5093643;28;20446;-48
2022/07/05 02:38:47;;;;;;;1.83;1.40;;;18.80;99.90;;;;;;5093092;28;20477;-48
2022/07/05 02:41:14;;;;;;;2.40;1.70;;;18.80;99.90;;;;;;5093117;28;20992;-46
2022/07/05 02:43:41;;;;;;;2.40;1.60;;;18.80;99.90;;;;;;5093485;28;20443;-47
2022/07/05 02:46:09;;;;;;;2.03;1.40;;;18.70;99.90;;;;;;5093397;28;20447;-46
2022/07/05 02:48:38;;;;;;;2.00;1.60;;;18.70;99.90;;;;;;5093314;28;20471;-47
2022/07/05 02:51:07;;;;;;;4.60;1.60;;;18.70;99.90;;;;;;5093016;28;20538;-48
2022/07/05 02:53:34;;;;;;;2.50;1.60;;;18.60;99.90;;;;;;5093295;28;20530;-47
2022/07/05 02:56:02;;;;;;;1.57;1.47;;;18.50;99.90;;;;;;5093001;28;20940;-45
2022/07/05 02:58:29;;;;;;;2.80;1.60;;;18.40;99.90;;;;;;5093204;28;20475;-46
2022/07/05 03:00:56;;;;;;;2.70;1.57;;;18.40;99.90;;;;;;5092675;28;20513;-46
2022/07/05 03:03:23;;;;;;;2.57;1.50;;;18.30;99.90;;;;;;5092824;28;20443;-45
2022/07/05 03:05:50;;;;;;;5.20;1.40;;;18.40;99.90;;;;;;5092848;28;20940;-46
2022/07/05 03:08:18;;;;;;;3.20;1.40;;;18.50;99.90;;;;;;5093199;28;20494;-47
2022/07/05 03:10:46;;;;;;;3.07;1.60;;;18.50;99.90;;;;;;5092682;28;20910;-49
2022/07/05 03:13:13;;;;;;;1.50;1.37;;;18.60;99.90;;;;;;5092289;28;20902;-46
2022/07/05 03:15:40;;;;;;;2.90;2.10;;;18.60;99.90;;;;;;5093040;28;20490;-49
2022/07/05 03:18:07;;;;;;;3.40;1.47;;;18.70;99.90;;;;;;5092589;28;20506;-47
2022/07/05 03:20:34;;;;;;;3.20;1.83;;;18.80;99.90;;;;;;5092455;28;20509;-46
2022/07/05 03:23:00;;;;;;;2.97;1.23;;;18.80;99.90;;;;;;5092711;28;20448;-47
2022/07/05 03:25:29;;;;;;;2.50;1.50;;;18.80;99.90;;;;;;5092344;28;20924;-46
2022/07/05 03:27:56;;;;;;;1.90;1.33;;;18.80;99.90;;;;;;5092364;28;20515;-47
2022/07/05 03:30:23;;;;;;;2.80;1.10;;;18.90;99.90;;;;;;5092113;28;20455;-49
2022/07/05 03:32:50;;;;;;;2.53;1.40;;;18.90;99.90;;;;;;5092419;28;20932;-45
2022/07/05 03:35:17;;;;;;;1.50;0.97;;;18.90;99.90;;;;;;5092589;28;20589;-47
2022/07/05 03:37:44;;;;;;;1.50;1.03;;;18.90;99.90;;;;;;5092335;28;20563;-45
2022/07/05 03:40:12;;;;;;;1.60;0.73;;;18.90;99.90;;;;;;5093130;28;20560;-46
2022/07/05 03:42:40;;;;;;;1.80;1.10;;;18.90;99.90;;;;;;5092176;28;20443;-46
2022/07/05 03:45:07;;;;;;;1.93;1.10;;;18.80;99.90;;;;;;5092382;28;20522;-46
2022/07/05 03:47:34;;;;;;;2.10;1.03;;;18.80;99.90;;;;;;5092141;28;20972;-46
2022/07/05 03:50:01;;;;;;;2.90;1.10;;;18.60;99.90;;;;;;5091912;28;20554;-45
2022/07/05 03:52:28;;;;;;;2.20;1.10;;;18.50;99.90;;;;;;5092121;28;20513;-48
2022/07/05 03:54:55;;;;;;;4.43;1.10;;;18.50;99.90;;;;;;5091980;28;20518;-45
2022/07/05 03:57:22;;;;;;;2.00;1.20;;;18.50;99.90;;;;;;5091783;28;20584;-46
2022/07/05 03:59:51;;;;;;;2.87;1.00;;;18.60;99.90;;;;;;5091637;28;20471;-46
2022/07/05 04:02:17;;;;;;;2.40;1.23;;;18.50;99.90;;;;;;5092042;28;20475;-46
2022/07/05 04:04:44;;;;;;;2.53;1.67;;;18.40;99.90;;;;;;5091938;28;20471;-45
2022/07/05 04:07:11;;;;;;;1.73;0.90;;;18.40;99.90;;;;;;5091687;28;20979;-47
2022/07/05 04:09:38;;;;;;;2.00;1.60;;;18.40;99.90;;;;;;5091310;28;20515;-45
2022/07/05 04:12:06;;;;;;;1.87;1.57;;;18.40;99.90;;;;;;5091199;28;20549;-46
2022/07/05 04:14:33;;;;;;;2.50;1.20;;;18.50;99.90;;;;;;5091687;28;20435;-47
2022/07/05 04:17:02;;;;;;;2.60;1.17;;;18.50;99.90;;;;;;5091546;28;20474;-46
2022/07/05 04:19:30;;;;;;;1.63;1.30;;;18.50;99.90;;;;;;5091468;28;20515;-45
2022/07/05 04:21:57;;;;;;;3.23;1.53;;;18.60;99.90;;;;;;5091715;28;20443;-47
2022/07/05 04:24:24;;;;;;;3.63;1.30;;;18.60;99.90;;;;;;5091579;28;20496;-45
2022/07/05 04:26:51;;;;;;;1.50;1.10;;;18.60;99.90;;;;;;5091450;28;20486;-46
2022/07/05 04:29:17;;;;;;;1.80;1.60;;;18.60;99.90;;;;;;5091278;28;20782;-46
2022/07/05 04:31:44;;;;;;;2.20;1.40;;;18.70;99.90;;;;;;5091118;28;20491;-45
2022/07/05 04:34:13;;;;;;;1.83;1.20;;;18.70;99.90;;;;;;5091184;28;20474;-48
2022/07/05 04:36:40;;;;;;;2.10;1.37;;;18.70;99.90;;;;;;5090839;28;20522;-46
2022/07/05 04:39:07;;;;;;;2.50;1.20;;;18.70;99.90;;;;;;5090644;28;20478;-49
2022/07/05 04:41:34;;;;;;;2.53;1.13;;;18.70;99.90;;;;;;5090877;28;21017;-46
2022/07/05 04:44:01;;;;;;;2.07;1.20;;;18.70;99.90;;;;;;5091196;28;20489;-45
2022/07/05 04:46:28;;;;;;;2.00;0.90;;;18.70;99.90;;;;;;5091138;28;20530;-45
2022/07/05 04:48:55;;;;;;;3.30;0.93;;;18.70;99.90;;;;;;5090564;28;20974;-47
2022/07/05 04:51:23;;;;;;;2.63;1.40;;;18.70;99.90;;;;;;5091040;28;20486;-47
2022/07/05 04:53:50;;;;;;;2.80;1.10;;;18.70;99.90;;;;;;5090862;28;20960;-47
2022/07/05 04:56:17;;;;;;;1.90;1.00;;;18.70;99.90;;;;;;5090877;28;20447;-46
2022/07/05 04:58:44;;;;;;;1.80;1.20;;;18.80;99.90;;;;;;5090647;28;20529;-49
2022/07/05 05:01:11;;;;;;;1.10;0.90;;;18.80;99.90;;;;;;5090501;28;20517;-46
2022/07/05 05:03:38;;;;;;;2.00;1.20;;;18.80;99.90;;;;;;5090707;28;20879;-46
2022/07/05 05:06:05;;;;;;;1.90;1.57;;;18.80;99.90;;;;;;5090833;28;20519;-48
2022/07/05 05:08:33;;;;;;;4.17;1.50;;;18.70;99.90;;;;;;5090658;28;20439;-45
2022/07/05 05:11:00;;;;;;;1.77;1.30;;;18.60;99.90;;;;;;5089779;28;20968;-47
2022/07/05 05:13:27;;;;;;;2.23;1.33;;;18.50;99.90;;;;;;5090508;28;20924;-49
2022/07/05 05:15:54;;;;;;;1.93;1.00;;;18.50;99.90;;;;;;5090636;28;20443;-46
2022/07/05 05:18:26;;;;;;;3.03;1.60;;;18.50;99.90;;;;;;5090505;28;20471;-45
2022/07/05 05:20:53;;;;;;;1.67;1.10;;;18.50;99.90;;;;;;5090252;28;20474;-47
2022/07/05 05:23:20;;;;;;;2.60;1.60;;;18.40;99.90;;;;;;5090306;28;20645;-45
2022/07/05 05:25:48;;;;;;;1.40;1.27;;;18.40;99.90;;;;;;5090307;28;20441;-46
2022/07/05 05:28:15;;;;;;;1.93;1.73;;;18.50;99.90;;;;;;5090397;28;20868;-45
2022/07/05 05:30:42;;;;;;;3.13;1.70;;;18.50;99.90;;;;;;5090157;28;20462;-49
2022/07/05 05:33:09;;;;;;;1.80;1.30;;;18.50;99.90;;;;;;5090349;28;20518;-45
2022/07/05 05:35:36;;;;;;;2.60;1.27;;;18.50;99.90;;;;;;5090148;28;20967;-47
2022/07/05 05:38:03;;;;;;;2.30;1.30;;;18.50;99.90;;;;;;5089890;28;20915;-46
2022/07/05 05:40:30;;;;;;;3.13;1.50;;;18.60;99.90;;;;;;5089510;28;20510;-46
2022/07/05 05:42:59;;;;;;;1.67;1.13;;;18.60;99.90;;;;;;5089987;28;20474;-48
2022/07/05 05:45:26;;;;;;;1.97;1.83;;;18.70;99.90;;;;;;5089965;28;20809;-45
2022/07/05 05:47:54;;;;;;;1.33;1.23;;;18.70;99.90;;;;;;5090216;28;20474;-47
2022/07/05 05:50:22;;;;;;;3.00;1.23;;;18.70;99.90;;;;;;5089777;28;20535;-45
2022/07/05 05:52:49;;;;;;;1.70;1.20;;;18.80;99.90;;;;;;5090092;28;20668;-46
2022/07/05 05:55:17;;;;;;;1.30;1.00;;;18.80;99.90;;;;;;5089755;28;20971;-46
2022/07/05 05:57:44;;;;;;;1.97;1.10;;;18.90;99.90;;;;;;5089877;28;20479;-49
2022/07/05 06:00:13;;;;;;;2.07;1.20;;;18.90;99.90;;;;;;5088776;28;20560;-48
2022/07/05 06:02:41;;;;;;;10.90;2.23;;;18.90;99.90;;;;;;5089850;28;20444;-46
2022/07/05 06:05:09;;;;;;;2.20;1.50;;;19.00;99.90;;;;;;5088940;28;20542;-45
2022/07/05 06:07:51;;;;;;;1.70;1.50;;;19.00;99.90;;;;;;5089646;28;20474;-45
2022/07/05 06:10:19;;;;;;;6.03;2.27;;;19.00;99.90;;;;;;5089649;28;20498;-45
2022/07/05 06:12:46;;;;;;;1.63;1.07;;;19.00;99.90;;;;;;5089367;28;20501;-45
2022/07/05 06:15:15;;;;;;;3.70;1.33;;;18.90;99.90;;;;;;5089447;28;21002;-48
2022/07/05 06:17:42;;;;;;;2.17;1.30;;;19.00;99.90;;;;;;5089567;28;20527;-47
2022/07/05 06:20:11;;;;;;;3.10;1.40;;;19.00;99.90;;;;;;5089373;28;20571;-46
2022/07/05 06:22:38;;;;;;;2.27;1.20;;;19.00;99.90;;;;;;5089758;28;20526;-45
2022/07/05 06:25:07;;;;;;;2.03;1.40;;;19.10;99.90;;;;;;5089486;28;20530;-48
2022/07/05 06:27:39;;;;;;;1.90;1.30;;;19.10;99.90;;;;;;5089459;28;20450;-49
2022/07/05 06:30:07;;;;;;;1.83;1.27;;;19.20;99.90;;;;;;5089703;28;20854;-50
2022/07/05 06:32:36;;;;;;;2.20;0.93;;;19.30;99.90;;;;;;5089873;28;20504;-47
2022/07/05 06:35:03;;;;;;;1.23;0.90;;;19.40;99.90;;;;;;5089944;28;20520;-48
2022/07/05 06:37:42;;;;;;;3.03;1.13;;;19.40;99.90;;;;;;5089796;28;20472;-49
2022/07/05 06:40:10;;;;;;;3.20;1.20;;;19.50;99.90;;;;;;5088980;28;20490;-46
2022/07/05 06:42:37;;;;;;;1.77;1.03;;;19.60;99.90;;;;;;5089560;28;20465;-46
2022/07/05 06:45:06;;;;;;;1.70;1.40;;;19.70;99.90;;;;;;5089429;28;20478;-45
2022/07/05 06:47:33;;;;;;;2.50;1.10;;;19.70;99.90;;;;;;5089793;28;20530;-46
2022/07/05 06:50:02;;;;;;;1.60;1.30;;;19.70;99.90;;;;;;5089450;28;20483;-47
2022/07/05 06:52:29;;;;;;;2.20;1.33;;;19.80;99.90;;;;;;5089632;28;20466;-49
2022/07/05 06:54:56;;;;;;;1.90;1.70;;;19.90;99.90;;;;;;5089339;28;21014;-46
2022/07/05 06:57:24;;;;;;;2.10;1.60;;;20.00;99.90;;;;;;5089446;28;20482;-45
2022/07/05 06:59:51;;;;;;;2.70;1.00;;;20.10;99.90;;;;;;5089250;28;20536;-47
2022/07/05 07:02:19;;;;;;;1.90;1.20;;;20.00;99.90;;;;;;5093104;28;20819;-46
2022/07/05 07:04:46;;;;;;;3.47;1.20;;;20.00;99.90;;;;;;5093308;28;20446;-46
2022/07/05 07:10:01;;;;;;;1.50;1.27;;;19.80;99.90;;;;;;5092817;28;20438;-47
2022/07/05 07:12:29;;;;;;;1.60;1.23;;;19.60;99.90;;;;;;5092755;28;20932;-46
2022/07/05 07:14:56;;;;;;;3.23;1.30;;;19.60;99.90;;;;;;5093049;28;20439;-46
2022/07/05 07:17:23;;;;;;;2.90;1.20;;;19.50;99.90;;;;;;5092744;28;20475;-48
2022/07/05 07:19:49;;;;;;;1.70;1.10;;;19.50;99.90;;;;;;5092547;28;20479;-46
2022/07/05 07:22:18;;;;;;;1.60;1.10;;;19.50;99.90;;;;;;5093260;28;20478;-47
2022/07/05 07:24:45;;;;;;;1.40;1.20;;;19.50;99.90;;;;;;5092852;28;20530;-46
2022/07/05 07:27:12;;;;;;;2.13;1.37;;;19.50;99.90;;;;;;5092841;28;20435;-47
2022/07/05 07:29:40;;;;;;;2.50;1.00;;;19.60;99.90;;;;;;5092236;28;20863;-46
2022/07/05 07:32:08;;;;;;;1.93;1.20;;;19.60;99.90;;;;;;5092879;28;20530;-46
2022/07/05 07:34:36;;;;;;;1.50;1.00;;;19.60;99.90;;;;;;5092735;28;20451;-46
2022/07/05 07:37:04;;;;;;;2.17;1.43;;;19.70;99.90;;;;;;5092602;28;20451;-46
2022/07/05 07:39:32;;;;;;;1.73;1.30;;;19.80;99.90;;;;;;5091995;28;20521;-45
2022/07/05 07:41:59;;;;;;;3.10;2.07;;;19.70;99.90;;;;;;5092549;28;20479;-45
2022/07/05 07:44:26;;;;;;;1.90;1.40;;;19.70;99.90;;;;;;5093050;28;20440;-49
2022/07/05 07:46:53;;;;;;;2.80;1.53;;;19.70;99.90;;;;;;5092302;28;20499;-45
2022/07/05 07:49:20;;;;;;;1.73;1.33;;;19.70;99.90;;;;;;5092384;28;20440;-47
2022/07/05 07:51:47;;;;;;;4.03;1.33;;;19.60;99.90;;;;;;5092558;28;20534;-45
2022/07/05 07:54:14;;;;;;;1.63;1.30;;;19.60;99.90;;;;;;5092256;28;20436;-45
2022/07/05 07:56:43;;;;;;;1.23;0.83;;;19.40;99.90;;;;;;5092295;28;20436;-46
2022/07/05 07:59:10;;;;;;;1.70;1.30;;;19.30;99.90;;;;;;5091886;28;20475;-44
2022/07/05 08:01:37;;;;;;;2.43;1.50;;;19.20;99.90;;;;;;5092187;28;20495;-47
2022/07/05 08:04:04;;;;;;;2.10;1.47;;;19.30;99.90;;;;;;5092229;28;20964;-45
2022/07/05 08:06:31;;;;;;;2.20;1.90;;;19.30;99.90;;;;;;5091754;28;20439;-47
2022/07/05 08:08:58;;;;;;;2.13;1.63;;;19.20;99.90;;;;;;5091678;28;20562;-47
2022/07/05 08:11:25;;;;;;;2.10;1.90;;;19.20;99.90;;;;;;5090757;28;20523;-48
2022/07/05 08:13:53;;;;;;;2.80;1.60;;;19.20;99.90;;;;;;5091543;28;20467;-45
2022/07/05 08:16:20;;;;;;;2.50;1.60;;;19.20;99.90;;;;;;5092052;28;20447;-50
2022/07/05 08:21:31;;;;;;;3.10;2.03;;;19.10;99.90;;;;;;5091408;28;20439;-45
2022/07/05 08:23:58;;;;;;;3.07;1.80;;;19.20;99.90;;;;;;5091576;28;20527;-46
2022/07/05 08:26:26;;;;;;;2.43;2.20;;;19.30;99.90;;;;;;5091496;28;20470;-46
2022/07/05 08:28:54;;;;;;;4.00;1.80;;;19.20;99.90;;;;;;5091227;28;20471;-46
2022/07/05 08:31:22;;;;;;;2.70;2.17;;;19.30;99.90;;;;;;5091357;28;20451;-47
2022/07/05 08:33:49;;;;;;;2.50;1.97;;;19.30;99.90;;;;;;5091290;28;20855;-44
2022/07/05 08:36:16;;;;;;;3.13;2.10;;;19.30;99.90;;;;;;5091581;28;20890;-42
2022/07/05 08:38:43;;;;;;;2.10;1.70;;;19.40;99.90;;;;;;5091288;28;20526;-46
2022/07/05 08:41:12;;;;;;;2.00;1.60;;;19.50;99.90;;;;;;5090628;28;21023;-48
2022/07/05 08:43:42;;;;;;;2.60;1.27;;;19.60;99.90;;;;;;5091287;28;20479;-46
2022/07/05 08:46:12;;;;;;;2.20;1.80;;;19.60;99.90;;;;;;5091271;28;20478;-47
2022/07/05 08:48:43;;;;;;;4.73;1.70;;;19.60;99.90;;;;;;5091056;28;20811;-47
2022/07/05 08:51:13;;;;;;;2.50;1.67;;;19.60;99.90;;;;;;5091056;28;20478;-45
2022/07/05 08:53:41;;;;;;;1.97;1.40;;;19.50;99.90;;;;;;5091108;28;20448;-48
2022/07/05 08:56:10;;;;;;;2.50;1.73;;;19.60;99.90;;;;;;5091165;28;20470;-46
2022/07/05 08:58:37;;;;;;;2.07;1.53;;;19.60;99.90;;;;;;5091193;28;20513;-50
2022/07/05 09:01:04;;;;;;;1.80;1.70;;;19.60;99.90;;;;;;5090309;28;20485;-47
2022/07/05 09:03:34;;;;;;;3.17;2.20;;;19.70;99.90;;;;;;5090826;28;20530;-51
2022/07/05 09:06:02;;;;;;;3.63;1.60;;;19.70;99.90;;;;;;5090973;28;20523;-49
2022/07/05 09:08:33;;;;;;;2.30;2.00;;;19.70;99.90;;;;;;5091085;28;20526;-47
2022/07/05 09:11:02;;;;;;;2.53;1.70;;;19.70;99.90;;;;;;5090615;28;20460;-49
2022/07/05 09:13:33;;;;;;;2.03;1.50;;;19.60;99.90;;;;;;5091183;28;20444;-45
2022/07/05 09:16:00;;;;;;;2.53;1.40;;;19.60;99.90;;;;;;5091027;28;20543;-47
2022/07/05 09:18:44;;;;;;;1.77;1.67;;;19.60;99.90;;;;;;5090760;28;20500;-48
2022/07/05 09:21:16;;;;;;;2.57;1.60;;;19.60;99.90;;;;;;5090758;28;20570;-46
2022/07/05 09:23:43;;;;;;;2.50;1.50;;;19.50;99.90;;;;;;5090467;28;20474;-45
2022/07/05 09:26:10;;;;;;;1.70;1.43;;;19.70;99.90;;;;;;5090814;28;20470;-46
2022/07/05 09:28:38;;;;;;;2.80;1.87;;;19.80;99.90;;;;;;5090866;28;20519;-51
2022/07/05 09:31:05;;;;;;;1.87;1.60;;;19.90;99.90;;;;;;5090560;28;20487;-45
2022/07/05 09:33:32;;;;;;;3.27;1.53;;;19.90;99.90;;;;;;5090442;28;20467;-46
2022/07/05 09:36:01;;;;;;;3.30;1.93;;;19.80;99.90;;;;;;5090703;28;20805;-46
2022/07/05 09:38:28;;;;;;;4.40;2.13;;;19.70;99.90;;;;;;5090424;28;20453;-47
2022/07/05 09:40:57;;;;;;;4.17;2.60;;;19.80;99.90;;;;;;5091381;28;20483;-49
2022/07/05 09:43:26;;;;;;;4.33;2.10;;;19.80;99.90;;;;;;5090583;28;20440;-46
2022/07/05 09:45:55;;;;;;;5.70;3.07;;;19.80;99.90;;;;;;5090800;28;20520;-47
2022/07/05 09:48:22;;;;;;;3.10;2.17;;;19.80;99.90;;;;;;5090368;28;20468;-47
2022/07/05 09:50:50;;;;;;;3.47;1.97;;;19.70;99.90;;;;;;5090222;28;20460;-46
2022/07/05 09:53:18;;;;;;;4.40;2.07;;;19.80;99.90;;;;;;5090580;28;20514;-46
2022/07/05 09:56:01;;;;;;;7.83;4.03;;;19.70;99.90;;;;;;5090622;28;20447;-47
2022/07/05 09:58:29;;;;;;;4.10;2.50;;;19.80;99.90;;;;;;5090480;28;20944;-47
2022/07/05 10:00:56;;;;;;;2.57;2.30;;;19.80;99.90;;;;;;5090423;28;20503;-46
2022/07/05 10:03:23;;;;;;;2.20;2.00;;;19.80;99.90;;;;;;5090498;28;20452;-48
2022/07/05 10:05:50;;;;;;;2.37;2.17;;;19.90;99.90;;;;;;5091001;28;20442;-45
2022/07/05 10:08:21;;;;;;;2.57;2.37;;;20.00;99.90;;;;;;5090655;28;20436;-47
2022/07/05 10:10:50;;;;;;;3.67;3.17;;;20.00;99.90;;;;;;5090283;28;20458;-47
2022/07/05 10:13:17;;;;;;;3.90;3.30;;;19.90;99.90;;;;;;5090168;28;20455;-46
2022/07/05 10:15:46;;;;;;;5.33;3.73;;;19.90;99.90;;;;;;5090693;28;20482;-49
2022/07/05 10:18:18;;;;;;;4.43;4.03;;;19.90;99.90;;;;;;5090148;28;20448;-46
2022/07/05 10:20:46;;;;;;;3.33;3.03;;;19.80;99.90;;;;;;5089992;28;20481;-47
2022/07/05 10:23:14;;;;;;;3.67;3.10;;;19.80;99.90;;;;;;5090363;28;20538;-46
2022/07/05 10:25:47;;;;;;;3.33;2.90;;;19.60;99.90;;;;;;5090773;28;20527;-48
2022/07/05 10:28:15;;;;;;;8.13;5.90;;;19.60;99.90;;;;;;5090143;28;20451;-49
2022/07/05 10:30:45;;;;;;;4.50;4.10;;;19.70;99.90;;;;;;5090117;28;20550;-45
2022/07/05 10:33:14;;;;;;;3.73;3.40;;;19.70;99.90;;;;;;5090297;28;20782;-48
2022/07/05 10:35:44;;;;;;;3.20;2.90;;;19.70;99.90;;;;;;5091791;28;20490;-46
2022/07/05 10:38:12;;;;;;;3.40;3.10;;;19.80;99.90;;;;;;5093896;28;20478;-47
2022/07/05 10:40:41;;;;;;;3.27;2.97;;;19.80;99.90;;;;;;5076283;28;20907;-50
2022/07/05 10:43:13;;;;;;;3.63;3.10;;;19.80;99.90;;;;;;5073144;28;20448;-47
2022/07/05 10:45:41;;;;;;;3.90;3.30;;;19.90;99.90;;;;;;5072092;28;20435;-44
2022/07/05 10:48:16;;;;;;;3.47;3.17;;;19.90;99.90;;;;;;5072856;28;20436;-45
2022/07/05 10:50:45;;;;;;;3.90;2.80;;;19.90;99.90;;;;;;5072265;28;20845;-47
2022/07/05 10:53:12;;;;;;;3.77;2.80;;;20.00;99.90;;;;;;5072489;28;20436;-49
2022/07/05 10:55:57;;;;;;;3.23;2.93;;;20.00;99.90;;;;;;5072931;28;20812;-46
2022/07/05 10:58:30;;;;;;;3.70;3.27;;;20.10;99.90;;;;;;5073090;28;20511;-47
2022/07/05 11:01:45;;;;;;;3.13;2.83;;;20.10;99.90;;;;;;5072512;28;20476;-47
2022/07/05 11:04:35;;;;;;;3.43;3.10;;;20.10;99.90;;;;;;5073162;28;20448;-46
2022/07/05 11:07:02;;;;;;;3.47;3.17;;;20.10;99.90;;;;;;5072550;28;20854;-44
2022/07/05 11:09:29;;;;;;;7.17;3.27;;;20.10;99.90;;;;;;5072457;28;20467;-49
2022/07/05 11:12:07;;;;;;;3.10;2.87;;;20.10;99.90;;;;;;5072401;28;20456;-46
2022/07/05 11:14:40;;;;;;;3.17;2.90;;;20.10;99.90;;;;;;5072874;28;20493;-49
2022/07/05 11:17:26;;;;;;;3.30;2.83;;;20.10;99.90;;;;;;5072762;28;21029;-45
2022/07/05 11:20:11;;;;;;;4.33;2.73;;;20.10;99.90;;;;;;5072731;28;20490;-43
2022/07/05 11:22:41;;;;;;;3.97;2.87;;;20.10;99.90;;;;;;5072736;28;20436;-47
2022/07/05 11:25:10;;;;;;;7.77;4.70;;;20.10;99.90;;;;;;5072501;28;20448;-51
2022/07/05 11:27:58;;;;;;;3.73;2.67;;;20.10;99.90;;;;;;5072247;28;20452;-47
2022/07/05 11:30:26;;;;;;;3.47;3.17;;;20.10;99.90;;;;;;5072023;28;21024;-48
2022/07/05 11:32:53;;;;;;;3.00;2.70;;;20.10;99.90;;;;;;5072339;28;20932;-47
2022/07/05 11:35:21;;;;;;;2.87;2.40;;;20.20;99.90;;;;;;5072529;28;20452;-47
2022/07/05 11:38:07;;;;;;;4.37;3.27;;;20.20;99.90;;;;;;5072341;28;20444;-46
2022/07/05 11:40:36;;;;;;;3.33;2.97;;;20.20;99.90;;;;;;5071989;28;20484;-46
2022/07/05 11:43:03;;;;;;;3.63;3.30;;;20.20;99.90;;;;;;5072707;28;20910;-50
2022/07/05 11:45:32;;;;;;;2.97;2.67;;;20.20;99.90;;;;;;5072370;28;20997;-46
2022/07/05 11:47:59;;;;;;;3.47;3.17;;;20.30;99.90;;;;;;5072083;28;20549;-46
2022/07/05 11:50:31;;;;;;;4.63;3.77;;;20.30;99.90;;;;;;5071919;28;20507;-48
2022/07/05 11:52:59;;;;;;;4.10;3.63;;;20.30;99.90;;;;;;5071990;28;20476;-46
2022/07/05 11:55:28;;;;;;;3.73;3.30;;;20.30;99.90;;;;;;5072100;28;20525;-48
2022/07/05 11:57:56;;;;;;;2.97;2.60;;;20.30;99.90;;;;;;5072280;28;20440;-48
2022/07/05 12:00:35;;;;;;;3.27;2.70;;;20.30;99.90;;;;;;5071634;28;20533;-47
2022/07/05 12:03:11;;;;;;;3.57;3.27;;;20.40;99.90;;;;;;5072494;28;21002;-49
2022/07/05 12:05:38;;;;;;;4.03;3.27;;;20.40;99.90;;;;;;5071909;28;20494;-47
2022/07/05 12:08:06;;;;;;;3.47;3.17;;;20.40;99.90;;;;;;5072266;28;20479;-47
2022/07/05 12:13:17;;;;;;;3.43;3.13;;;20.20;99.90;;;;;;5071521;28;20816;-46
2022/07/05 12:15:47;;;;;;;3.57;3.27;;;20.00;99.90;;;;;;5071643;28;20440;-45
2022/07/05 12:18:15;;;;;;;3.70;3.40;;;19.90;99.90;;;;;;5071511;28;20813;-46
2022/07/05 12:20:42;;;;;;;5.40;3.30;;;19.80;99.90;;;;;;5071242;28;20475;-46
2022/07/05 12:23:09;;;;;;;3.90;3.53;;;19.60;99.90;;;;;;5071661;28;20464;-47
2022/07/05 12:25:37;;;;;;;4.03;3.37;;;19.60;99.90;;;;;;5071286;28;20432;-46
2022/07/05 12:28:06;;;;;;;3.67;3.37;;;19.60;99.90;;;;;;5071504;28;20483;-48
2022/07/05 12:30:34;;;;;;;3.93;3.30;;;19.60;99.90;;;;;;5071207;28;20464;-46
2022/07/05 12:33:03;;;;;;;3.23;2.90;;;19.60;99.90;;;;;;5071546;28;20433;-47
2022/07/05 12:35:32;;;;;;;3.40;3.10;;;19.70;99.90;;;;;;5071312;28;20876;-48
2022/07/05 12:38:07;;;;;;;3.70;3.40;;;19.80;99.90;;;;;;5070978;28;20528;-46
2022/07/05 12:40:35;;;;;;;3.40;3.13;;;19.80;99.90;;;;;;5070789;28;20522;-46
2022/07/05 12:43:07;;;;;;;4.00;3.13;;;19.90;99.90;;;;;;5071087;28;20501;-48
2022/07/05 12:45:35;;;;;;;4.57;4.17;;;20.00;99.90;;;;;;5070908;28;20872;-48
2022/07/05 12:48:05;;;;;;;3.70;3.30;;;20.10;99.90;;;;;;5070848;28;20453;-48
2022/07/05 12:50:46;;;;;;;3.73;3.43;;;20.20;99.90;;;;;;5070421;28;20484;-48
2022/07/05 12:58:49;;;;;;;3.67;3.37;;;20.20;99.90;;;;;;5069906;28;20447;-46
2022/07/05 13:01:21;;;;;;;4.77;3.67;;;20.30;99.90;;;;;;5070474;28;20568;-47
2022/07/05 13:04:05;;;;;;;4.23;3.93;;;20.30;99.90;;;;;;5070501;28;20448;-51
2022/07/05 13:06:50;;;;;;;3.50;3.20;;;20.30;99.90;;;;;;5070470;28;20481;-47
2022/07/05 13:09:31;;;;;;;4.37;3.30;;;20.30;99.90;;;;;;5070102;28;20450;-49